Time;durP1;ratioP1;P1;durP2;ratioP2;P2;SDS_P1;SDS_P2;PMS_P1;PMS_P2;Temp;Humidity;BMP_temperature;BMP_pressure;BME280_temperature;BME280_humidity;BME280_pressure;Samples;Min_cycle;Max_cycle;Signal;HPM_P1;HPM_P2
2022/02/15 00:00:32;;;;;;;0.00;0.00;;;;;;;;;;5048702;28;21001;-72
2022/02/15 00:02:59;;;;;;;0.00;0.00;;;;;;;;;;5049799;28;20199;-69
2022/02/15 00:05:27;;;;;;;0.30;0.13;;;;;;;;;;5056191;28;20583;-69
2022/02/15 00:07:55;;;;;;;0.00;0.00;;;;;;;;;;5045742;28;20214;-70
2022/02/15 00:10:22;;;;;;;0.00;0.00;;;;;;;;;;5045712;28;20211;-71
2022/02/15 00:12:49;;;;;;;0.20;0.20;;;;;;;;;;5048007;28;20254;-72
2022/02/15 00:15:17;;;;;;;0.00;0.00;;;;;;;;;;5044977;28;20218;-73
2022/02/15 00:17:46;;;;;;;0.00;0.00;;;;;;;;;;5049400;28;20204;-69
2022/02/15 00:20:13;;;;;;;0.00;0.00;;;;;;;;;;5049591;28;20222;-71
2022/02/15 00:22:41;;;;;;;0.00;0.00;;;;;;;;;;5044680;28;20234;-70
2022/02/15 00:25:09;;;;;;;0.00;0.00;;;;;;;;;;5047150;28;20192;-70
2022/02/15 00:27:37;;;;;;;0.00;0.00;;;;;;;;;;5046547;28;20207;-74
2022/02/15 00:30:05;;;;;;;0.00;0.00;;;;;;;;;;5045529;28;20215;-70
2022/02/15 00:32:33;;;;;;;0.00;0.00;;;;;;;;;;5047066;28;20231;-69
2022/02/15 00:35:01;;;;;;;0.00;0.00;;;;;;;;;;5046812;28;20211;-72
2022/02/15 00:37:29;;;;;;;0.00;0.00;;;;;;;;;;5044688;28;20195;-73
2022/02/15 00:39:56;;;;;;;0.00;0.00;;;;;;;;;;5046923;28;20294;-71
2022/02/15 00:42:24;;;;;;;0.00;0.00;;;;;;;;;;5044002;28;20218;-72
2022/02/15 00:44:51;;;;;;;0.00;0.00;;;;;;;;;;5045537;28;20196;-74
2022/02/15 00:47:18;;;;;;;0.20;0.17;;;;;;;;;;5046947;28;20203;-70
2022/02/15 00:49:46;;;;;;;0.00;0.00;;;;;;;;;;5043213;28;20290;-72
2022/02/15 00:52:15;;;;;;;4.13;0.33;;;;;;;;;;5045784;28;20768;-72
2022/02/15 00:54:42;;;;;;;0.03;0.03;;;;;;;;;;5045255;28;20198;-71
2022/02/15 00:57:11;;;;;;;0.00;0.00;;;;;;;;;;5045706;28;20226;-74
2022/02/15 00:59:38;;;;;;;0.10;0.10;;;;;;;;;;5046325;28;20664;-71
2022/02/15 01:02:06;;;;;;;0.00;0.00;;;;;;;;;;5043571;28;20204;-71
2022/02/15 01:04:33;;;;;;;0.00;0.00;;;;;;;;;;5044272;28;20206;-72
2022/02/15 01:07:01;;;;;;;0.30;0.30;;;;;;;;;;5045198;28;20230;-73
2022/02/15 01:09:29;;;;;;;0.00;0.00;;;;;;;;;;5052691;28;20206;-72
2022/02/15 01:11:57;;;;;;;1.17;0.77;;;;;;;;;;5045864;28;20203;-72
2022/02/15 01:14:24;;;;;;;0.00;0.00;;;;;;;;;;5043821;28;20236;-71
2022/02/15 01:16:51;;;;;;;0.03;0.03;;;;;;;;;;5046824;28;20215;-70
2022/02/15 01:19:19;;;;;;;0.00;0.00;;;;;;;;;;5045436;28;20684;-70
2022/02/15 01:21:46;;;;;;;0.00;0.00;;;;;;;;;;5042999;28;20211;-71
2022/02/15 01:24:14;;;;;;;0.30;0.30;;;;;;;;;;5048014;28;20204;-73
2022/02/15 01:26:42;;;;;;;0.10;0.10;;;;;;;;;;5044557;28;20207;-73
2022/02/15 01:29:10;;;;;;;0.03;0.03;;;;;;;;;;5043697;28;20195;-68
2022/02/15 01:31:37;;;;;;;0.00;0.00;;;;;;;;;;5047312;28;20202;-70
2022/02/15 01:34:04;;;;;;;0.03;0.03;;;;;;;;;;5052584;28;20220;-72
2022/02/15 01:36:32;;;;;;;0.30;0.20;;;;;;;;;;5044540;28;20709;-72
2022/02/15 01:38:59;;;;;;;0.00;0.00;;;;;;;;;;5048743;28;20206;-73
2022/02/15 01:41:26;;;;;;;0.23;0.23;;;;;;;;;;5049107;28;20537;-69
2022/02/15 01:43:55;;;;;;;0.30;0.30;;;;;;;;;;5044673;28;20203;-73
2022/02/15 01:46:22;;;;;;;0.73;0.20;;;;;;;;;;5045935;28;20199;-72
2022/02/15 01:48:50;;;;;;;0.63;0.20;;;;;;;;;;5044114;28;20226;-73
2022/02/15 01:51:17;;;;;;;0.10;0.10;;;;;;;;;;5042813;28;20200;-73
2022/02/15 01:53:45;;;;;;;0.10;0.10;;;;;;;;;;5047240;28;20227;-71
2022/02/15 01:56:14;;;;;;;0.00;0.00;;;;;;;;;;5042490;28;20666;-70
2022/02/15 01:58:41;;;;;;;0.30;0.30;;;;;;;;;;5045073;28;20534;-71
2022/02/15 02:01:10;;;;;;;0.00;0.00;;;;;;;;;;5049134;28;20677;-72
2022/02/15 02:03:37;;;;;;;0.00;0.00;;;;;;;;;;5048232;28;20210;-69
2022/02/15 02:06:04;;;;;;;0.00;0.00;;;;;;;;;;5053082;28;20230;-69
2022/02/15 02:08:34;;;;;;;0.57;0.37;;;;;;;;;;5054039;28;20235;-70
2022/02/15 02:11:02;;;;;;;2.80;2.53;;;;;;;;;;5051038;28;20203;-75
2022/02/15 02:13:29;;;;;;;0.20;0.20;;;;;;;;;;5055354;28;20242;-73
2022/02/15 02:15:57;;;;;;;0.13;0.13;;;;;;;;;;5052947;28;20210;-71
2022/02/15 02:18:25;;;;;;;9.33;0.63;;;;;;;;;;5055757;28;20211;-70
2022/02/15 02:20:53;;;;;;;0.00;0.00;;;;;;;;;;5048886;28;20840;-69
2022/02/15 02:23:23;;;;;;;0.00;0.00;;;;;;;;;;5053587;28;20203;-70
2022/02/15 02:25:50;;;;;;;0.00;0.00;;;;;;;;;;5055454;28;20202;-70
2022/02/15 02:28:19;;;;;;;0.00;0.00;;;;;;;;;;5051569;28;20680;-73
2022/02/15 02:30:46;;;;;;;0.27;0.10;;;;;;;;;;5049499;28;20242;-71
2022/02/15 02:33:13;;;;;;;0.07;0.07;;;;;;;;;;5054850;28;20234;-70
2022/02/15 02:35:41;;;;;;;0.00;0.00;;;;;;;;;;5054933;28;20234;-71
2022/02/15 02:38:08;;;;;;;0.00;0.00;;;;;;;;;;5051641;28;20570;-70
2022/02/15 02:40:37;;;;;;;0.00;0.00;;;;;;;;;;5057419;28;20207;-69
2022/02/15 02:43:04;;;;;;;0.00;0.00;;;;;;;;;;5055578;28;20199;-70
2022/02/15 02:45:32;;;;;;;0.00;0.00;;;;;;;;;;5052625;28;20310;-69
2022/02/15 02:48:00;;;;;;;0.43;0.43;;;;;;;;;;5046252;28;20195;-71
2022/02/15 02:50:29;;;;;;;0.03;0.03;;;;;;;;;;5049428;28;20284;-70
2022/02/15 02:52:57;;;;;;;0.00;0.00;;;;;;;;;;5045651;28;20657;-72
2022/02/15 02:55:24;;;;;;;0.90;0.30;;;;;;;;;;5045793;28;20840;-70
2022/02/15 02:57:54;;;;;;;0.00;0.00;;;;;;;;;;5045447;28;20203;-69
2022/02/15 03:00:21;;;;;;;7.63;0.87;;;;;;;;;;5048165;28;20227;-71
2022/02/15 03:02:49;;;;;;;0.30;0.10;;;;;;;;;;5049223;28;20220;-72
2022/02/15 03:05:16;;;;;;;1.67;0.47;;;;;;;;;;5047804;28;20243;-73
2022/02/15 03:07:43;;;;;;;0.03;0.03;;;;;;;;;;5049229;28;20203;-69
2022/02/15 03:10:11;;;;;;;0.73;0.73;;;;;;;;;;5047563;28;20606;-72
2022/02/15 03:12:38;;;;;;;0.00;0.00;;;;;;;;;;5047190;28;20207;-71
2022/02/15 03:15:08;;;;;;;0.10;0.10;;;;;;;;;;5050045;28;20227;-72
2022/02/15 03:17:35;;;;;;;0.20;0.20;;;;;;;;;;5047082;28;20203;-70
2022/02/15 03:20:03;;;;;;;0.03;0.03;;;;;;;;;;5048120;28;20587;-75
2022/02/15 03:22:30;;;;;;;0.00;0.00;;;;;;;;;;5049216;28;20195;-71
2022/02/15 03:24:58;;;;;;;0.03;0.03;;;;;;;;;;5048953;28;20220;-72
2022/02/15 03:27:25;;;;;;;0.00;0.00;;;;;;;;;;5044692;28;20278;-70
2022/02/15 03:29:52;;;;;;;0.00;0.00;;;;;;;;;;5045188;28;20200;-68
2022/02/15 03:32:21;;;;;;;0.83;0.43;;;;;;;;;;5047667;28;20199;-70
2022/02/15 03:34:48;;;;;;;0.17;0.17;;;;;;;;;;5048612;28;20583;-69
2022/02/15 03:37:16;;;;;;;0.00;0.00;;;;;;;;;;5047870;28;20214;-69
2022/02/15 03:39:43;;;;;;;0.10;0.10;;;;;;;;;;5045288;28;20199;-71
2022/02/15 03:44:55;;;;;;;0.10;0.00;;;;;;;;;;5049099;28;20623;-70
2022/02/15 03:47:24;;;;;;;6.77;1.30;;;;;;;;;;5046766;28;20213;-69
2022/02/15 03:49:51;;;;;;;0.60;0.27;;;;;;;;;;5046138;28;20200;-71
2022/02/15 03:52:19;;;;;;;0.40;0.40;;;;;;;;;;5046319;28;20207;-71
2022/02/15 03:54:46;;;;;;;1.37;0.30;;;;;;;;;;5048544;28;20253;-70
2022/02/15 03:57:13;;;;;;;0.17;0.17;;;;;;;;;;5045457;28;20214;-70
2022/02/15 03:59:41;;;;;;;1.43;0.37;;;;;;;;;;5045058;28;20322;-75
2022/02/15 04:02:08;;;;;;;0.10;0.10;;;;;;;;;;5046495;28;20210;-70
2022/02/15 04:04:37;;;;;;;6.03;0.37;;;;;;;;;;5047148;28;20206;-69
2022/02/15 04:07:04;;;;;;;3.97;1.50;;;;;;;;;;5048380;28;20238;-70
2022/02/15 04:09:32;;;;;;;4.40;1.17;;;;;;;;;;5048198;28;20207;-71
2022/02/15 04:12:00;;;;;;;0.10;0.10;;;;;;;;;;5045892;28;20199;-77
2022/02/15 04:14:27;;;;;;;0.00;0.00;;;;;;;;;;5049535;28;20222;-69
2022/02/15 04:16:57;;;;;;;0.10;0.10;;;;;;;;;;5045289;28;20577;-70
2022/02/15 04:19:24;;;;;;;1.17;0.20;;;;;;;;;;5045138;28;20331;-70
2022/02/15 04:21:53;;;;;;;0.00;0.00;;;;;;;;;;5047172;28;20210;-70
2022/02/15 04:24:20;;;;;;;2.00;0.30;;;;;;;;;;5045065;28;20217;-72
2022/02/15 04:26:47;;;;;;;1.73;0.87;;;;;;;;;;5043793;28;20191;-73
2022/02/15 04:29:17;;;;;;;0.87;0.20;;;;;;;;;;5045530;28;20196;-70
2022/02/15 04:31:44;;;;;;;1.50;0.63;;;;;;;;;;5048193;28;20199;-69
2022/02/15 04:34:12;;;;;;;0.43;0.20;;;;;;;;;;5044915;28;20222;-72
2022/02/15 04:36:39;;;;;;;0.67;0.67;;;;;;;;;;5047591;28;20202;-71
2022/02/15 04:39:08;;;;;;;2.73;0.67;;;;;;;;;;5043672;28;20195;-73
2022/02/15 04:41:35;;;;;;;0.30;0.30;;;;;;;;;;5046417;28;20775;-72
2022/02/15 04:44:02;;;;;;;0.20;0.20;;;;;;;;;;5045747;28;21944;-71
2022/02/15 04:46:30;;;;;;;2.60;2.40;;;;;;;;;;5043812;28;20219;-71
2022/02/15 04:48:57;;;;;;;0.43;0.43;;;;;;;;;;5050110;28;20199;-70
2022/02/15 04:51:24;;;;;;;4.53;0.57;;;;;;;;;;5049627;28;20199;-70
2022/02/15 04:53:53;;;;;;;0.30;0.30;;;;;;;;;;5048101;28;20241;-73
2022/02/15 04:56:22;;;;;;;0.20;0.10;;;;;;;;;;5049414;28;20294;-73
2022/02/15 04:58:49;;;;;;;0.10;0.10;;;;;;;;;;5049572;28;20203;-74
2022/02/15 05:01:17;;;;;;;0.47;0.13;;;;;;;;;;5053241;28;20745;-70
2022/02/15 05:03:44;;;;;;;0.37;0.37;;;;;;;;;;5052672;28;20203;-70
2022/02/15 05:06:11;;;;;;;0.73;0.73;;;;;;;;;;5050903;28;20238;-71
2022/02/15 05:08:39;;;;;;;0.77;0.57;;;;;;;;;;5050526;28;20213;-69
2022/02/15 05:11:06;;;;;;;0.10;0.10;;;;;;;;;;5048177;28;20547;-70
2022/02/15 05:13:36;;;;;;;0.00;0.00;;;;;;;;;;5048352;28;20208;-71
2022/02/15 05:16:03;;;;;;;0.03;0.03;;;;;;;;;;5051228;28;20196;-71
2022/02/15 05:18:30;;;;;;;0.30;0.30;;;;;;;;;;5050637;28;20210;-73
2022/02/15 05:21:01;;;;;;;7.80;0.63;;;;;;;;;;5055862;28;20212;-70
2022/02/15 05:23:29;;;;;;;0.07;0.07;;;;;;;;;;5047008;28;20206;-74
2022/02/15 05:25:56;;;;;;;1.13;0.17;;;;;;;;;;5044891;28;20206;-74
2022/02/15 05:28:24;;;;;;;0.90;0.37;;;;;;;;;;5044961;28;20199;-74
2022/02/15 05:30:53;;;;;;;1.90;0.50;;;;;;;;;;5046297;28;20196;-72
2022/02/15 05:33:20;;;;;;;0.87;0.87;;;;;;;;;;5049491;28;20199;-70
2022/02/15 05:35:47;;;;;;;0.30;0.30;;;;;;;;;;5049220;28;20249;-74
2022/02/15 05:38:15;;;;;;;0.00;0.00;;;;;;;;;;5052320;28;20191;-70
2022/02/15 05:40:42;;;;;;;0.60;0.60;;;;;;;;;;5052863;28;20290;-72
2022/02/15 05:43:13;;;;;;;0.00;0.00;;;;;;;;;;5052957;28;20595;-71
2022/02/15 05:45:41;;;;;;;0.10;0.10;;;;;;;;;;5049565;28;20289;-71
2022/02/15 05:48:09;;;;;;;0.13;0.10;;;;;;;;;;5049539;28;20199;-70
2022/02/15 05:50:52;;;;;;;0.40;0.40;;;;;;;;;;5044855;28;20203;-71
2022/02/15 05:53:21;;;;;;;0.60;0.60;;;;;;;;;;5043525;28;20211;-70
2022/02/15 05:55:51;;;;;;;0.00;0.00;;;;;;;;;;5044278;28;20231;-71
2022/02/15 05:58:18;;;;;;;0.37;0.37;;;;;;;;;;5043670;28;20226;-70
2022/02/15 06:00:46;;;;;;;0.30;0.30;;;;;;;;;;5043064;28;20215;-71
2022/02/15 06:06:00;;;;;;;0.40;0.40;;;;;;;;;;5044287;28;20241;-70
2022/02/15 06:08:27;;;;;;;1.53;0.43;;;;;;;;;;5045000;28;20687;-70
2022/02/15 06:10:55;;;;;;;0.00;0.00;;;;;;;;;;5049095;28;20207;-72
2022/02/15 06:13:22;;;;;;;0.20;0.10;;;;;;;;;;5046790;28;20210;-70
2022/02/15 06:15:49;;;;;;;0.40;0.40;;;;;;;;;;5050392;28;20218;-71
2022/02/15 06:18:18;;;;;;;0.00;0.00;;;;;;;;;;5049609;28;20331;-72
2022/02/15 06:20:45;;;;;;;1.50;0.60;;;;;;;;;;5046305;28;20198;-70
2022/02/15 06:23:13;;;;;;;1.90;0.40;;;;;;;;;;5046841;28;20203;-71
2022/02/15 06:25:40;;;;;;;0.10;0.10;;;;;;;;;;5046839;28;20791;-75
2022/02/15 06:28:08;;;;;;;0.00;0.00;;;;;;;;;;5050717;28;20199;-73
2022/02/15 06:30:35;;;;;;;0.10;0.10;;;;;;;;;;5048028;28;20656;-70
2022/02/15 06:33:03;;;;;;;0.00;0.00;;;;;;;;;;5047966;28;20194;-71
2022/02/15 06:35:31;;;;;;;0.10;0.10;;;;;;;;;;5049301;28;20223;-75
2022/02/15 06:37:59;;;;;;;0.00;0.00;;;;;;;;;;5049598;28;20219;-71
2022/02/15 06:40:26;;;;;;;0.53;0.40;;;;;;;;;;5047732;28;20723;-70
2022/02/15 06:42:54;;;;;;;0.00;0.00;;;;;;;;;;5047315;28;20214;-71
2022/02/15 06:45:21;;;;;;;2.13;0.63;;;;;;;;;;5048812;28;20203;-70
2022/02/15 06:47:48;;;;;;;0.77;0.37;;;;;;;;;;5047857;28;21006;-74
2022/02/15 06:50:16;;;;;;;0.30;0.30;;;;;;;;;;5047714;28;20676;-71
2022/02/15 06:52:45;;;;;;;0.10;0.10;;;;;;;;;;5047410;28;20241;-70
2022/02/15 06:55:12;;;;;;;0.00;0.00;;;;;;;;;;5047969;28;20588;-72
2022/02/15 06:57:40;;;;;;;0.20;0.20;;;;;;;;;;5047039;28;20287;-73
2022/02/15 07:00:07;;;;;;;6.17;0.83;;;;;;;;;;5051533;28;20209;-71
2022/02/15 07:02:35;;;;;;;0.60;0.60;;;;;;;;;;5050385;28;20226;-70
2022/02/15 07:05:02;;;;;;;0.00;0.00;;;;;;;;;;5049747;28;20660;-71
2022/02/15 07:07:30;;;;;;;0.20;0.20;;;;;;;;;;5052269;28;20730;-71
2022/02/15 07:09:58;;;;;;;1.70;0.67;;;;;;;;;;5052593;28;20590;-72
2022/02/15 07:12:26;;;;;;;4.13;0.87;;;;;;;;;;5049503;28;20861;-70
2022/02/15 07:14:53;;;;;;;0.40;0.40;;;;;;;;;;5053345;28;20226;-72
2022/02/15 07:17:21;;;;;;;6.43;0.67;;;;;;;;;;5046359;28;20205;-75
2022/02/15 07:19:48;;;;;;;0.63;0.60;;;;;;;;;;5045212;28;20204;-69
2022/02/15 07:22:16;;;;;;;0.00;0.00;;;;;;;;;;5057342;28;20203;-69
2022/02/15 07:24:43;;;;;;;0.60;0.47;;;;;;;;;;5057070;28;20196;-71
2022/02/15 07:27:12;;;;;;;0.60;0.60;;;;;;;;;;5051285;28;20199;-69
2022/02/15 07:29:41;;;;;;;0.27;0.23;;;;;;;;;;5055464;28;20199;-69
2022/02/15 07:32:08;;;;;;;0.23;0.23;;;;;;;;;;5061381;28;20661;-70
2022/02/15 07:34:36;;;;;;;0.10;0.10;;;;;;;;;;5059786;28;20203;-76
2022/02/15 07:37:04;;;;;;;0.00;0.00;;;;;;;;;;5065789;28;20206;-70
2022/02/15 07:39:31;;;;;;;0.30;0.17;;;;;;;;;;5057752;28;20870;-71
2022/02/15 07:41:59;;;;;;;0.40;0.10;;;;;;;;;;5056220;28;20195;-72
2022/02/15 07:44:27;;;;;;;0.10;0.10;;;;;;;;;;5055456;28;20280;-71
2022/02/15 07:46:55;;;;;;;0.00;0.00;;;;;;;;;;5055747;28;20205;-70
2022/02/15 07:49:22;;;;;;;0.30;0.30;;;;;;;;;;5056020;28;20572;-71
2022/02/15 07:51:50;;;;;;;0.10;0.10;;;;;;;;;;5057863;28;20203;-69
2022/02/15 07:54:18;;;;;;;0.03;0.03;;;;;;;;;;5055270;28;20698;-77
2022/02/15 07:56:46;;;;;;;0.10;0.10;;;;;;;;;;5060611;28;20730;-69
2022/02/15 07:59:13;;;;;;;1.13;0.63;;;;;;;;;;5051177;28;20584;-72
2022/02/15 08:01:42;;;;;;;0.17;0.17;;;;;;;;;;5047445;28;20724;-70
2022/02/15 08:04:13;;;;;;;0.00;0.00;;;;;;;;;;5047366;28;20203;-70
2022/02/15 08:06:40;;;;;;;0.77;0.77;;;;;;;;;;5053638;28;20247;-72
2022/02/15 08:09:14;;;;;;;0.87;0.37;;;;;;;;;;5060501;28;20196;-69
2022/02/15 08:11:42;;;;;;;0.10;0.10;;;;;;;;;;5051065;28;20195;-69
2022/02/15 08:14:09;;;;;;;0.57;0.13;;;;;;;;;;5049857;28;20209;-73
2022/02/15 08:16:37;;;;;;;1.00;0.27;;;;;;;;;;5050591;28;20267;-69
2022/02/15 08:19:06;;;;;;;0.00;0.00;;;;;;;;;;5053779;28;20202;-70
2022/02/15 08:21:34;;;;;;;0.30;0.30;;;;;;;;;;5053068;28;20557;-70
2022/02/15 08:24:01;;;;;;;0.20;0.20;;;;;;;;;;5051375;28;20199;-69
2022/02/15 08:26:28;;;;;;;0.50;0.50;;;;;;;;;;5053461;28;20199;-70
2022/02/15 08:28:56;;;;;;;0.00;0.00;;;;;;;;;;5048031;28;20936;-69
2022/02/15 08:31:23;;;;;;;0.00;0.00;;;;;;;;;;5052283;28;20948;-70
2022/02/15 08:33:50;;;;;;;0.00;0.00;;;;;;;;;;5056535;28;20652;-67
2022/02/15 08:36:19;;;;;;;0.00;0.00;;;;;;;;;;5051691;28;20206;-70
2022/02/15 08:38:47;;;;;;;0.73;0.73;;;;;;;;;;5050036;28;20663;-70
2022/02/15 08:41:14;;;;;;;0.00;0.00;;;;;;;;;;5054792;28;20199;-69
2022/02/15 08:43:41;;;;;;;2.00;0.20;;;;;;;;;;5051940;28;20195;-69
2022/02/15 08:46:09;;;;;;;0.40;0.30;;;;;;;;;;5052096;28;20203;-69
2022/02/15 08:48:36;;;;;;;0.00;0.00;;;;;;;;;;5048123;28;20207;-71
2022/02/15 08:51:03;;;;;;;0.47;0.47;;;;;;;;;;5052844;28;20572;-73
2022/02/15 08:53:32;;;;;;;0.20;0.20;;;;;;;;;;5048137;28;20306;-74
2022/02/15 08:56:00;;;;;;;0.90;0.43;;;;;;;;;;5049446;28;20309;-71
2022/02/15 08:58:27;;;;;;;0.73;0.40;;;;;;;;;;5051585;28;20207;-70
2022/02/15 09:00:55;;;;;;;2.20;1.27;;;;;;;;;;5053365;28;20199;-69
2022/02/15 09:03:23;;;;;;;1.27;1.03;;;;;;;;;;5053198;28;20592;-68
2022/02/15 09:05:50;;;;;;;0.10;0.10;;;;;;;;;;5055315;28;20227;-70
2022/02/15 09:08:17;;;;;;;0.53;0.40;;;;;;;;;;5057516;28;20202;-70
2022/02/15 09:10:46;;;;;;;10.93;0.50;;;;;;;;;;5056926;28;20638;-70
2022/02/15 09:13:16;;;;;;;0.43;0.43;;;;;;;;;;5052861;28;20199;-69
2022/02/15 09:15:43;;;;;;;4.33;0.40;;;;;;;;;;5055122;28;20578;-70
2022/02/15 09:18:11;;;;;;;0.10;0.10;;;;;;;;;;5052354;28;20198;-68
2022/02/15 09:20:38;;;;;;;0.30;0.27;;;;;;;;;;5054504;28;20203;-72
2022/02/15 09:23:06;;;;;;;1.43;1.33;;;;;;;;;;5063117;28;20634;-69
2022/02/15 09:25:33;;;;;;;0.20;0.20;;;;;;;;;;5059369;28;20194;-69
2022/02/15 09:28:02;;;;;;;1.80;0.43;;;;;;;;;;5057755;28;20199;-69
2022/02/15 09:30:29;;;;;;;0.30;0.30;;;;;;;;;;5054097;28;20198;-70
2022/02/15 09:32:58;;;;;;;0.77;0.53;;;;;;;;;;5054132;28;20198;-71
2022/02/15 09:35:25;;;;;;;0.57;0.57;;;;;;;;;;5051208;28;20571;-71
2022/02/15 09:37:52;;;;;;;0.50;0.50;;;;;;;;;;5052333;28;20191;-71
2022/02/15 09:40:20;;;;;;;4.70;0.27;;;;;;;;;;5051747;28;20207;-69
2022/02/15 09:42:47;;;;;;;0.43;0.37;;;;;;;;;;5050386;28;20211;-68
2022/02/15 09:45:16;;;;;;;0.37;0.37;;;;;;;;;;5057351;28;20203;-68
2022/02/15 09:47:46;;;;;;;0.70;0.70;;;;;;;;;;5048285;28;22206;-69
2022/02/15 09:50:13;;;;;;;0.27;0.23;;;;;;;;;;5047246;28;20289;-68
2022/02/15 09:52:46;;;;;;;0.13;0.13;;;;;;;;;;5047642;28;20555;-69
2022/02/15 09:55:13;;;;;;;0.17;0.10;;;;;;;;;;5048526;28;20688;-73
2022/02/15 09:57:41;;;;;;;0.10;0.10;;;;;;;;;;5045658;28;20294;-69
2022/02/15 10:00:09;;;;;;;2.03;0.87;;;;;;;;;;5046843;28;20546;-73
2022/02/15 10:02:38;;;;;;;0.70;0.70;;;;;;;;;;5048753;28;20204;-69
2022/02/15 10:05:10;;;;;;;0.27;0.13;;;;;;;;;;5047129;28;20188;-70
2022/02/15 10:07:46;;;;;;;0.00;0.00;;;;;;;;;;5049785;28;20206;-70
2022/02/15 10:10:16;;;;;;;0.20;0.20;;;;;;;;;;5053716;28;20346;-71
2022/02/15 10:12:44;;;;;;;0.30;0.30;;;;;;;;;;5054418;28;20199;-67
2022/02/15 10:15:12;;;;;;;0.00;0.00;;;;;;;;;;5050269;28;20207;-70
2022/02/15 10:17:45;;;;;;;0.10;0.10;;;;;;;;;;5052835;28;20209;-69
2022/02/15 10:20:12;;;;;;;0.07;0.07;;;;;;;;;;5053075;28;20205;-71
2022/02/15 10:22:40;;;;;;;0.83;0.23;;;;;;;;;;5051249;28;20195;-70
2022/02/15 10:25:08;;;;;;;0.67;0.47;;;;;;;;;;5049359;28;20191;-71
2022/02/15 10:27:35;;;;;;;0.30;0.20;;;;;;;;;;5048836;28;20295;-70
2022/02/15 10:30:05;;;;;;;0.30;0.30;;;;;;;;;;5048991;28;20192;-69
2022/02/15 10:32:32;;;;;;;0.20;0.10;;;;;;;;;;5050976;28;20662;-71
2022/02/15 10:35:01;;;;;;;0.00;0.00;;;;;;;;;;5045229;28;20203;-70
2022/02/15 10:37:31;;;;;;;0.57;0.57;;;;;;;;;;5046051;28;20239;-71
2022/02/15 10:39:59;;;;;;;1.60;1.27;;;;;;;;;;5045288;28;20322;-72
2022/02/15 10:42:27;;;;;;;2.17;0.80;;;;;;;;;;5051486;28;20245;-71
2022/02/15 10:44:57;;;;;;;1.77;0.70;;;;;;;;;;5055157;28;20191;-73
2022/02/15 10:47:26;;;;;;;2.93;1.17;;;;;;;;;;5059062;28;20201;-71
2022/02/15 10:49:55;;;;;;;0.97;0.47;;;;;;;;;;5051898;28;20648;-70
2022/02/15 10:52:24;;;;;;;1.30;0.43;;;;;;;;;;5055806;28;20195;-70
2022/02/15 10:54:52;;;;;;;6.23;1.47;;;;;;;;;;5057930;28;20202;-70
2022/02/15 10:57:22;;;;;;;1.60;0.70;;;;;;;;;;5059106;28;20219;-70
2022/02/15 10:59:52;;;;;;;1.40;0.40;;;;;;;;;;5062996;28;20199;-70
2022/02/15 11:02:22;;;;;;;0.37;0.37;;;;;;;;;;5053989;28;20203;-70
2022/02/15 11:04:50;;;;;;;0.20;0.20;;;;;;;;;;5060823;28;20293;-73
2022/02/15 11:07:20;;;;;;;6.37;0.87;;;;;;;;;;5060770;28;20229;-70
2022/02/15 11:09:57;;;;;;;0.37;0.10;;;;;;;;;;5057675;28;20198;-70
2022/02/15 11:12:26;;;;;;;0.83;0.53;;;;;;;;;;5058462;28;20222;-71
2022/02/15 11:14:54;;;;;;;3.00;0.27;;;;;;;;;;5058083;28;20324;-71
2022/02/15 11:17:21;;;;;;;1.40;0.37;;;;;;;;;;5061044;28;20227;-70
2022/02/15 11:19:58;;;;;;;0.63;0.63;;;;;;;;;;5054508;28;20234;-71
2022/02/15 11:22:26;;;;;;;0.00;0.00;;;;;;;;;;5048050;28;20199;-71
2022/02/15 11:24:56;;;;;;;5.53;0.33;;;;;;;;;;5049174;28;20198;-71
2022/02/15 11:27:24;;;;;;;2.73;0.87;;;;;;;;;;5051549;28;20294;-70
2022/02/15 11:29:53;;;;;;;0.73;0.60;;;;;;;;;;5046712;28;20187;-71
2022/02/15 11:32:24;;;;;;;0.97;0.33;;;;;;;;;;5046925;28;20199;-75
2022/02/15 11:34:52;;;;;;;2.00;0.43;;;;;;;;;;5048738;28;20691;-72
2022/02/15 11:37:21;;;;;;;0.63;0.63;;;;;;;;;;5057246;28;20621;-70
2022/02/15 11:39:59;;;;;;;0.20;0.20;;;;;;;;;;5052688;28;20205;-71
2022/02/15 11:42:27;;;;;;;0.17;0.00;;;;;;;;;;5051998;28;20199;-71
2022/02/15 11:44:54;;;;;;;0.20;0.10;;;;;;;;;;5056932;28;20305;-70
2022/02/15 11:47:26;;;;;;;2.13;1.43;;;;;;;;;;5054231;28;20330;-71
2022/02/15 11:49:54;;;;;;;0.57;0.53;;;;;;;;;;5050943;28;20218;-71
2022/02/15 11:52:22;;;;;;;2.43;0.27;;;;;;;;;;5052125;28;20278;-71
2022/02/15 11:54:49;;;;;;;0.50;0.30;;;;;;;;;;5055426;28;20226;-71
2022/02/15 11:57:18;;;;;;;0.63;0.40;;;;;;;;;;5054646;28;20567;-71
2022/02/15 11:59:51;;;;;;;0.10;0.10;;;;;;;;;;5053872;28;20203;-70
2022/02/15 12:02:18;;;;;;;1.33;0.77;;;;;;;;;;5050514;28;20201;-73
2022/02/15 12:04:51;;;;;;;3.93;0.50;;;;;;;;;;5051867;28;21005;-71
2022/02/15 12:07:19;;;;;;;1.80;0.53;;;;;;;;;;5051967;28;20634;-71
2022/02/15 12:09:46;;;;;;;0.00;0.00;;;;;;;;;;5053416;28;20203;-71
2022/02/15 12:12:17;;;;;;;5.50;0.90;;;;;;;;;;5049421;28;20591;-71
2022/02/15 12:14:55;;;;;;;0.50;0.50;;;;;;;;;;5045299;28;21033;-70
2022/02/15 12:17:25;;;;;;;0.40;0.40;;;;;;;;;;5048623;28;20310;-72
2022/02/15 12:19:56;;;;;;;3.07;0.37;;;;;;;;;;5045425;28;20195;-70
2022/02/15 12:22:25;;;;;;;1.80;0.33;;;;;;;;;;5046273;28;20203;-72
2022/02/15 12:24:52;;;;;;;1.13;1.03;;;;;;;;;;5042391;28;20226;-72
2022/02/15 12:27:20;;;;;;;0.50;0.40;;;;;;;;;;5048354;28;20637;-70
2022/02/15 12:29:51;;;;;;;0.40;0.40;;;;;;;;;;5050438;28;20245;-70
2022/02/15 12:32:24;;;;;;;0.53;0.10;;;;;;;;;;5051972;28;20242;-69
2022/02/15 12:34:51;;;;;;;2.53;0.60;;;;;;;;;;5049081;28;20246;-72
2022/02/15 12:37:19;;;;;;;1.13;1.03;;;;;;;;;;5049258;28;20234;-72
2022/02/15 12:39:47;;;;;;;0.20;0.20;;;;;;;;;;5050571;28;20298;-70
2022/02/15 12:42:15;;;;;;;1.37;0.40;;;;;;;;;;5052882;28;20222;-70
2022/02/15 12:44:43;;;;;;;0.10;0.10;;;;;;;;;;5048451;28;20199;-71
2022/02/15 12:47:12;;;;;;;0.33;0.30;;;;;;;;;;5047598;28;20191;-71
2022/02/15 12:49:39;;;;;;;3.13;0.63;;;;;;;;;;5050249;28;20552;-72
2022/02/15 12:52:08;;;;;;;1.90;1.30;;;;;;;;;;5048618;28;20207;-71
2022/02/15 12:54:37;;;;;;;4.37;0.30;;;;;;;;;;5048400;28;20208;-72
2022/02/15 12:57:05;;;;;;;0.17;0.00;;;;;;;;;;5045243;28;20225;-71
2022/02/15 12:59:32;;;;;;;0.40;0.40;;;;;;;;;;5047751;28;20199;-72
2022/02/15 13:02:01;;;;;;;1.07;0.77;;;;;;;;;;5046572;28;20195;-73
2022/02/15 13:04:29;;;;;;;0.23;0.23;;;;;;;;;;5049621;28;20205;-70
2022/02/15 13:06:57;;;;;;;0.23;0.23;;;;;;;;;;5044619;28;20235;-72
2022/02/15 13:09:29;;;;;;;0.57;0.37;;;;;;;;;;5046746;28;20774;-70
2022/02/15 13:12:01;;;;;;;1.60;0.40;;;;;;;;;;5049224;28;20222;-70
2022/02/15 13:14:29;;;;;;;3.60;0.47;;;;;;;;;;5048985;28;20206;-71
2022/02/15 13:16:58;;;;;;;0.10;0.10;;;;;;;;;;5048024;28;20242;-71
2022/02/15 13:19:36;;;;;;;0.23;0.23;;;;;;;;;;5048890;28;20203;-70
2022/02/15 13:22:10;;;;;;;2.33;0.90;;;;;;;;;;5049148;28;20225;-71
2022/02/15 13:24:37;;;;;;;12.13;1.20;;;;;;;;;;5048499;28;20191;-70
2022/02/15 13:27:05;;;;;;;0.43;0.23;;;;;;;;;;5051672;28;20208;-75
2022/02/15 13:29:34;;;;;;;4.37;0.90;;;;;;;;;;5054342;28;20689;-70
2022/02/15 13:32:03;;;;;;;0.00;0.00;;;;;;;;;;5048143;28;20195;-71
2022/02/15 13:34:31;;;;;;;1.70;0.47;;;;;;;;;;5047451;28;20645;-72
2022/02/15 13:37:01;;;;;;;1.27;0.77;;;;;;;;;;5049669;28;20854;-71
2022/02/15 13:39:29;;;;;;;1.67;0.33;;;;;;;;;;5050716;28;20200;-72
2022/02/15 13:41:57;;;;;;;1.10;0.33;;;;;;;;;;5051901;28;20203;-70
2022/02/15 13:44:24;;;;;;;0.87;0.40;;;;;;;;;;5049900;28;20207;-72
2022/02/15 13:46:52;;;;;;;0.40;0.20;;;;;;;;;;5052995;28;20208;-71
2022/02/15 13:49:19;;;;;;;0.17;0.10;;;;;;;;;;5053299;28;20204;-71
2022/02/15 13:51:47;;;;;;;0.67;0.60;;;;;;;;;;5048428;28;20206;-72
2022/02/15 13:54:16;;;;;;;1.27;1.17;;;;;;;;;;5057535;28;20190;-72
2022/02/15 13:56:44;;;;;;;0.10;0.00;;;;;;;;;;5054483;28;20211;-70
2022/02/15 13:59:12;;;;;;;1.13;0.80;;;;;;;;;;5050742;28;20199;-71
2022/02/15 14:01:41;;;;;;;0.40;0.40;;;;;;;;;;5051098;28;20203;-73
2022/02/15 14:04:09;;;;;;;0.87;0.40;;;;;;;;;;5050398;28;20301;-73
2022/02/15 14:06:37;;;;;;;3.20;1.13;;;;;;;;;;5051629;28;20227;-71
2022/02/15 14:09:05;;;;;;;4.00;1.50;;;;;;;;;;5055730;28;20195;-71
2022/02/15 14:11:33;;;;;;;0.30;0.30;;;;;;;;;;5051496;28;20195;-71
2022/02/15 14:14:01;;;;;;;6.40;0.77;;;;;;;;;;5049712;28;20665;-71
2022/02/15 14:16:28;;;;;;;1.83;0.47;;;;;;;;;;5050590;28;20211;-71
2022/02/15 14:18:55;;;;;;;0.20;0.20;;;;;;;;;;5052080;28;20592;-71
2022/02/15 14:21:23;;;;;;;0.03;0.03;;;;;;;;;;5050776;28;20683;-70
2022/02/15 14:23:50;;;;;;;0.30;0.30;;;;;;;;;;5048308;28;20199;-72
2022/02/15 14:26:18;;;;;;;0.30;0.30;;;;;;;;;;5053306;28;20206;-71
2022/02/15 14:28:47;;;;;;;0.30;0.27;;;;;;;;;;5048693;28;20207;-70
2022/02/15 14:31:14;;;;;;;3.37;1.20;;;;;;;;;;5051917;28;20624;-70
2022/02/15 14:33:45;;;;;;;1.50;0.50;;;;;;;;;;5054117;28;21155;-70
2022/02/15 14:36:12;;;;;;;0.83;0.67;;;;;;;;;;5056110;28;20285;-71
2022/02/15 14:38:40;;;;;;;3.33;1.30;;;;;;;;;;5059181;28;20223;-71
2022/02/15 14:41:07;;;;;;;0.77;0.53;;;;;;;;;;5052914;28;20669;-73
2022/02/15 14:43:35;;;;;;;4.23;1.43;;;;;;;;;;5051976;28;20555;-73
2022/02/15 14:46:05;;;;;;;6.50;0.50;;;;;;;;;;5051732;28;20265;-74
2022/02/15 14:48:32;;;;;;;1.77;0.73;;;;;;;;;;5054359;28;20207;-72
2022/02/15 14:51:00;;;;;;;3.23;0.90;;;;;;;;;;5055965;28;20199;-72
2022/02/15 14:53:27;;;;;;;3.70;1.07;;;;;;;;;;5051598;28;20202;-71